sensor_id;sensor_type;location;lat;lon;timestamp;P1;durP1;ratioP1;P2;durP2;ratioP2
24261;SDS011;12385;51.412;5.540;2023-05-15T00:01:42;38.20;;;25.40;;
24261;SDS011;12385;51.412;5.540;2023-05-15T00:04:08;38.38;;;25.88;;
24261;SDS011;12385;51.412;5.540;2023-05-15T00:06:33;41.97;;;26.27;;
24261;SDS011;12385;51.412;5.540;2023-05-15T00:08:59;38.65;;;26.98;;
24261;SDS011;12385;51.412;5.540;2023-05-15T00:11:25;35.55;;;26.33;;
24261;SDS011;12385;51.412;5.540;2023-05-15T00:13:52;40.75;;;25.92;;
24261;SDS011;12385;51.412;5.540;2023-05-15T00:16:18;41.22;;;26.85;;
24261;SDS011;12385;51.412;5.540;2023-05-15T00:18:44;44.50;;;28.67;;
24261;SDS011;12385;51.412;5.540;2023-05-15T00:21:09;43.45;;;27.33;;
24261;SDS011;12385;51.412;5.540;2023-05-15T00:23:35;39.65;;;27.52;;
24261;SDS011;12385;51.412;5.540;2023-05-15T00:26:00;39.95;;;28.85;;
24261;SDS011;12385;51.412;5.540;2023-05-15T00:28:26;41.72;;;27.92;;
24261;SDS011;12385;51.412;5.540;2023-05-15T00:30:52;44.72;;;29.70;;
24261;SDS011;12385;51.412;5.540;2023-05-15T00:33:18;38.00;;;28.70;;
24261;SDS011;12385;51.412;5.540;2023-05-15T00:35:43;40.95;;;28.17;;
24261;SDS011;12385;51.412;5.540;2023-05-15T00:38:10;42.83;;;30.08;;
24261;SDS011;12385;51.412;5.540;2023-05-15T00:40:35;41.80;;;28.25;;
24261;SDS011;12385;51.412;5.540;2023-05-15T00:43:03;42.13;;;28.73;;
24261;SDS011;12385;51.412;5.540;2023-05-15T00:45:30;40.08;;;27.63;;
24261;SDS011;12385;51.412;5.540;2023-05-15T00:47:56;46.50;;;29.38;;
24261;SDS011;12385;51.412;5.540;2023-05-15T00:50:23;41.63;;;28.98;;
24261;SDS011;12385;51.412;5.540;2023-05-15T00:52:49;41.25;;;28.65;;
24261;SDS011;12385;51.412;5.540;2023-05-15T00:55:15;46.33;;;28.85;;
24261;SDS011;12385;51.412;5.540;2023-05-15T00:57:41;43.75;;;30.00;;
24261;SDS011;12385;51.412;5.540;2023-05-15T01:00:08;39.25;;;29.17;;
24261;SDS011;12385;51.412;5.540;2023-05-15T01:02:37;42.38;;;30.08;;
24261;SDS011;12385;51.412;5.540;2023-05-15T01:05:03;45.72;;;31.45;;
24261;SDS011;12385;51.412;5.540;2023-05-15T01:07:32;49.20;;;31.45;;
24261;SDS011;12385;51.412;5.540;2023-05-15T01:10:04;48.55;;;32.83;;
24261;SDS011;12385;51.412;5.540;2023-05-15T01:12:32;48.53;;;32.70;;
24261;SDS011;12385;51.412;5.540;2023-05-15T01:14:59;46.20;;;31.80;;
24261;SDS011;12385;51.412;5.540;2023-05-15T01:17:25;51.15;;;33.80;;
24261;SDS011;12385;51.412;5.540;2023-05-15T01:19:51;49.50;;;32.75;;
24261;SDS011;12385;51.412;5.540;2023-05-15T01:24:59;45.40;;;32.60;;
24261;SDS011;12385;51.412;5.540;2023-05-15T01:35:48;51.95;;;33.85;;
24261;SDS011;12385;51.412;5.540;2023-05-15T01:38:46;49.63;;;33.45;;
24261;SDS011;12385;51.412;5.540;2023-05-15T01:41:19;53.45;;;34.25;;
24261;SDS011;12385;51.412;5.540;2023-05-15T01:43:49;50.90;;;32.78;;
24261;SDS011;12385;51.412;5.540;2023-05-15T01:46:20;55.88;;;34.60;;
24261;SDS011;12385;51.412;5.540;2023-05-15T01:48:48;48.28;;;32.70;;
24261;SDS011;12385;51.412;5.540;2023-05-15T01:51:15;52.40;;;33.78;;
24261;SDS011;12385;51.412;5.540;2023-05-15T01:53:43;53.00;;;34.38;;
24261;SDS011;12385;51.412;5.540;2023-05-15T01:56:10;54.67;;;33.47;;
24261;SDS011;12385;51.412;5.540;2023-05-15T01:58:39;48.47;;;33.90;;
24261;SDS011;12385;51.412;5.540;2023-05-15T02:01:05;49.38;;;33.28;;
24261;SDS011;12385;51.412;5.540;2023-05-15T02:03:33;50.83;;;34.83;;
24261;SDS011;12385;51.412;5.540;2023-05-15T02:06:00;52.55;;;36.63;;
24261;SDS011;12385;51.412;5.540;2023-05-15T02:08:27;51.20;;;34.85;;
24261;SDS011;12385;51.412;5.540;2023-05-15T02:10:56;57.03;;;35.78;;
24261;SDS011;12385;51.412;5.540;2023-05-15T02:13:23;53.80;;;36.50;;
24261;SDS011;12385;51.412;5.540;2023-05-15T02:15:50;57.42;;;36.45;;
24261;SDS011;12385;51.412;5.540;2023-05-15T02:18:15;61.35;;;36.67;;
24261;SDS011;12385;51.412;5.540;2023-05-15T02:20:41;52.90;;;36.20;;
24261;SDS011;12385;51.412;5.540;2023-05-15T02:23:07;52.55;;;35.10;;
24261;SDS011;12385;51.412;5.540;2023-05-15T02:26:19;54.15;;;36.38;;
24261;SDS011;12385;51.412;5.540;2023-05-15T02:37:03;59.95;;;37.45;;
24261;SDS011;12385;51.412;5.540;2023-05-15T02:41:58;54.58;;;36.00;;
24261;SDS011;12385;51.412;5.540;2023-05-15T02:44:25;57.70;;;37.03;;
24261;SDS011;12385;51.412;5.540;2023-05-15T02:46:52;65.40;;;37.88;;
24261;SDS011;12385;51.412;5.540;2023-05-15T02:49:18;59.00;;;38.05;;
24261;SDS011;12385;51.412;5.540;2023-05-15T02:51:45;59.15;;;38.47;;
24261;SDS011;12385;51.412;5.540;2023-05-15T02:54:10;63.05;;;38.95;;
24261;SDS011;12385;51.412;5.540;2023-05-15T02:56:37;59.58;;;37.85;;
24261;SDS011;12385;51.412;5.540;2023-05-15T02:59:02;62.03;;;39.88;;
24261;SDS011;12385;51.412;5.540;2023-05-15T03:01:28;58.85;;;38.50;;
24261;SDS011;12385;51.412;5.540;2023-05-15T03:03:54;65.40;;;40.70;;
24261;SDS011;12385;51.412;5.540;2023-05-15T03:06:19;62.00;;;40.13;;
24261;SDS011;12385;51.412;5.540;2023-05-15T03:08:45;73.68;;;42.67;;
24261;SDS011;12385;51.412;5.540;2023-05-15T03:11:11;63.20;;;41.42;;
24261;SDS011;12385;51.412;5.540;2023-05-15T03:13:36;70.25;;;42.65;;
24261;SDS011;12385;51.412;5.540;2023-05-15T03:16:02;67.95;;;42.13;;
24261;SDS011;12385;51.412;5.540;2023-05-15T03:18:27;66.05;;;42.78;;
24261;SDS011;12385;51.412;5.540;2023-05-15T03:20:53;79.72;;;44.28;;
24261;SDS011;12385;51.412;5.540;2023-05-15T03:23:19;73.78;;;45.08;;
24261;SDS011;12385;51.412;5.540;2023-05-15T03:25:44;82.38;;;45.58;;
24261;SDS011;12385;51.412;5.540;2023-05-15T03:28:10;70.60;;;45.38;;
24261;SDS011;12385;51.412;5.540;2023-05-15T03:30:35;76.82;;;46.90;;
24261;SDS011;12385;51.412;5.540;2023-05-15T03:33:01;81.50;;;48.33;;
24261;SDS011;12385;51.412;5.540;2023-05-15T03:35:28;81.88;;;47.97;;
24261;SDS011;12385;51.412;5.540;2023-05-15T03:37:54;80.35;;;46.92;;
24261;SDS011;12385;51.412;5.540;2023-05-15T03:40:20;77.75;;;47.35;;
24261;SDS011;12385;51.412;5.540;2023-05-15T03:42:45;76.53;;;45.97;;
24261;SDS011;12385;51.412;5.540;2023-05-15T03:45:11;81.70;;;46.30;;
24261;SDS011;12385;51.412;5.540;2023-05-15T03:47:36;82.47;;;48.10;;
24261;SDS011;12385;51.412;5.540;2023-05-15T03:50:02;79.65;;;47.72;;
24261;SDS011;12385;51.412;5.540;2023-05-15T03:52:28;79.95;;;48.33;;
24261;SDS011;12385;51.412;5.540;2023-05-15T03:54:53;83.53;;;48.63;;
24261;SDS011;12385;51.412;5.540;2023-05-15T03:57:19;85.00;;;48.10;;
24261;SDS011;12385;51.412;5.540;2023-05-15T03:59:45;85.18;;;48.90;;
24261;SDS011;12385;51.412;5.540;2023-05-15T04:02:10;83.15;;;48.55;;
24261;SDS011;12385;51.412;5.540;2023-05-15T04:04:37;82.05;;;49.97;;
24261;SDS011;12385;51.412;5.540;2023-05-15T04:07:03;85.57;;;51.65;;
24261;SDS011;12385;51.412;5.540;2023-05-15T04:09:29;82.25;;;48.72;;
24261;SDS011;12385;51.412;5.540;2023-05-15T04:11:55;90.68;;;50.85;;
24261;SDS011;12385;51.412;5.540;2023-05-15T04:14:21;87.32;;;49.92;;
24261;SDS011;12385;51.412;5.540;2023-05-15T04:16:46;86.10;;;50.20;;
24261;SDS011;12385;51.412;5.540;2023-05-15T04:19:12;84.78;;;49.60;;
24261;SDS011;12385;51.412;5.540;2023-05-15T04:21:37;92.78;;;51.72;;
24261;SDS011;12385;51.412;5.540;2023-05-15T04:24:03;94.47;;;52.53;;
24261;SDS011;12385;51.412;5.540;2023-05-15T04:26:29;87.18;;;52.10;;
24261;SDS011;12385;51.412;5.540;2023-05-15T04:28:55;93.72;;;51.70;;
24261;SDS011;12385;51.412;5.540;2023-05-15T04:31:21;91.97;;;52.65;;
24261;SDS011;12385;51.412;5.540;2023-05-15T04:33:47;96.75;;;53.65;;
24261;SDS011;12385;51.412;5.540;2023-05-15T04:36:13;90.32;;;51.35;;
24261;SDS011;12385;51.412;5.540;2023-05-15T04:38:38;97.97;;;54.28;;
24261;SDS011;12385;51.412;5.540;2023-05-15T04:41:04;94.95;;;52.95;;
24261;SDS011;12385;51.412;5.540;2023-05-15T04:43:29;102.05;;;55.75;;
24261;SDS011;12385;51.412;5.540;2023-05-15T04:45:55;95.53;;;53.67;;
24261;SDS011;12385;51.412;5.540;2023-05-15T04:48:21;95.65;;;54.63;;
24261;SDS011;12385;51.412;5.540;2023-05-15T04:50:46;93.63;;;55.08;;
24261;SDS011;12385;51.412;5.540;2023-05-15T04:53:12;99.57;;;56.03;;
24261;SDS011;12385;51.412;5.540;2023-05-15T04:55:38;99.82;;;56.00;;
24261;SDS011;12385;51.412;5.540;2023-05-15T04:58:04;104.28;;;58.20;;
24261;SDS011;12385;51.412;5.540;2023-05-15T05:00:30;100.25;;;57.25;;
24261;SDS011;12385;51.412;5.540;2023-05-15T05:02:55;104.65;;;58.45;;
24261;SDS011;12385;51.412;5.540;2023-05-15T05:05:21;104.78;;;58.22;;
24261;SDS011;12385;51.412;5.540;2023-05-15T05:07:47;111.50;;;60.05;;
24261;SDS011;12385;51.412;5.540;2023-05-15T05:10:15;106.72;;;59.97;;
24261;SDS011;12385;51.412;5.540;2023-05-15T05:12:41;107.88;;;61.30;;
24261;SDS011;12385;51.412;5.540;2023-05-15T05:15:06;116.00;;;60.53;;
24261;SDS011;12385;51.412;5.540;2023-05-15T05:17:33;101.88;;;59.50;;
24261;SDS011;12385;51.412;5.540;2023-05-15T05:19:59;104.90;;;59.85;;
24261;SDS011;12385;51.412;5.540;2023-05-15T05:22:25;105.43;;;59.90;;
24261;SDS011;12385;51.412;5.540;2023-05-15T05:24:50;110.13;;;60.10;;
24261;SDS011;12385;51.412;5.540;2023-05-15T05:27:16;108.47;;;58.50;;
24261;SDS011;12385;51.412;5.540;2023-05-15T05:29:42;104.68;;;58.53;;
24261;SDS011;12385;51.412;5.540;2023-05-15T05:32:07;100.25;;;57.83;;
24261;SDS011;12385;51.412;5.540;2023-05-15T05:34:33;103.95;;;59.33;;
24261;SDS011;12385;51.412;5.540;2023-05-15T05:36:59;98.60;;;57.55;;
24261;SDS011;12385;51.412;5.540;2023-05-15T05:39:25;100.80;;;57.33;;
24261;SDS011;12385;51.412;5.540;2023-05-15T05:41:50;102.57;;;56.28;;
24261;SDS011;12385;51.412;5.540;2023-05-15T05:44:16;96.38;;;56.70;;
24261;SDS011;12385;51.412;5.540;2023-05-15T05:46:42;97.88;;;55.97;;
24261;SDS011;12385;51.412;5.540;2023-05-15T05:49:09;100.68;;;56.00;;
24261;SDS011;12385;51.412;5.540;2023-05-15T05:51:35;98.03;;;54.92;;
24261;SDS011;12385;51.412;5.540;2023-05-15T05:54:03;91.43;;;53.03;;
24261;SDS011;12385;51.412;5.540;2023-05-15T05:56:29;98.90;;;53.03;;
24261;SDS011;12385;51.412;5.540;2023-05-15T05:58:54;95.85;;;54.35;;
24261;SDS011;12385;51.412;5.540;2023-05-15T06:01:20;96.22;;;53.85;;
24261;SDS011;12385;51.412;5.540;2023-05-15T06:03:46;94.30;;;53.60;;
24261;SDS011;12385;51.412;5.540;2023-05-15T06:06:12;90.40;;;53.38;;
24261;SDS011;12385;51.412;5.540;2023-05-15T06:08:37;93.45;;;51.42;;
24261;SDS011;12385;51.412;5.540;2023-05-15T06:11:03;93.80;;;50.97;;
24261;SDS011;12385;51.412;5.540;2023-05-15T06:13:29;82.68;;;48.50;;
24261;SDS011;12385;51.412;5.540;2023-05-15T06:15:55;83.25;;;47.40;;
24261;SDS011;12385;51.412;5.540;2023-05-15T06:18:20;83.15;;;48.25;;
24261;SDS011;12385;51.412;5.540;2023-05-15T06:20:46;77.80;;;46.67;;
24261;SDS011;12385;51.412;5.540;2023-05-15T06:23:11;85.78;;;48.47;;
24261;SDS011;12385;51.412;5.540;2023-05-15T06:25:37;84.50;;;49.67;;
24261;SDS011;12385;51.412;5.540;2023-05-15T06:28:03;77.65;;;45.92;;
24261;SDS011;12385;51.412;5.540;2023-05-15T06:30:28;81.13;;;47.05;;
24261;SDS011;12385;51.412;5.540;2023-05-15T06:32:55;78.13;;;45.28;;
24261;SDS011;12385;51.412;5.540;2023-05-15T06:35:21;84.38;;;46.58;;
24261;SDS011;12385;51.412;5.540;2023-05-15T06:37:50;82.67;;;45.43;;
24261;SDS011;12385;51.412;5.540;2023-05-15T06:40:16;76.90;;;46.25;;
24261;SDS011;12385;51.412;5.540;2023-05-15T06:42:42;74.90;;;45.95;;
24261;SDS011;12385;51.412;5.540;2023-05-15T06:45:08;81.22;;;48.53;;
24261;SDS011;12385;51.412;5.540;2023-05-15T06:47:34;85.07;;;48.08;;
24261;SDS011;12385;51.412;5.540;2023-05-15T06:49:59;81.78;;;49.25;;
24261;SDS011;12385;51.412;5.540;2023-05-15T06:52:25;75.97;;;46.08;;
24261;SDS011;12385;51.412;5.540;2023-05-15T06:54:50;78.05;;;47.33;;
24261;SDS011;12385;51.412;5.540;2023-05-15T06:57:17;76.80;;;46.58;;
24261;SDS011;12385;51.412;5.540;2023-05-15T06:59:43;75.75;;;46.67;;
24261;SDS011;12385;51.412;5.540;2023-05-15T07:02:08;76.32;;;46.85;;
24261;SDS011;12385;51.412;5.540;2023-05-15T07:04:34;76.38;;;45.88;;
24261;SDS011;12385;51.412;5.540;2023-05-15T07:07:00;75.35;;;46.33;;
24261;SDS011;12385;51.412;5.540;2023-05-15T07:09:25;72.85;;;44.40;;
24261;SDS011;12385;51.412;5.540;2023-05-15T07:11:51;69.93;;;44.22;;
24261;SDS011;12385;51.412;5.540;2023-05-15T07:14:17;71.57;;;45.10;;
24261;SDS011;12385;51.412;5.540;2023-05-15T07:16:42;77.30;;;46.17;;
24261;SDS011;12385;51.412;5.540;2023-05-15T07:19:10;71.63;;;45.05;;
24261;SDS011;12385;51.412;5.540;2023-05-15T07:21:37;72.07;;;44.50;;
24261;SDS011;12385;51.412;5.540;2023-05-15T07:24:03;72.32;;;46.72;;
24261;SDS011;12385;51.412;5.540;2023-05-15T07:26:31;71.82;;;45.40;;
24261;SDS011;12385;51.412;5.540;2023-05-15T07:29:03;76.82;;;46.50;;
24261;SDS011;12385;51.412;5.540;2023-05-15T07:31:28;72.05;;;46.85;;
24261;SDS011;12385;51.412;5.540;2023-05-15T07:33:55;72.18;;;46.95;;
24261;SDS011;12385;51.412;5.540;2023-05-15T07:36:22;72.60;;;46.45;;
24261;SDS011;12385;51.412;5.540;2023-05-15T07:38:47;71.80;;;46.35;;
24261;SDS011;12385;51.412;5.540;2023-05-15T07:41:13;71.80;;;47.70;;
24261;SDS011;12385;51.412;5.540;2023-05-15T07:43:40;71.22;;;45.78;;
24261;SDS011;12385;51.412;5.540;2023-05-15T07:46:06;72.28;;;48.15;;
24261;SDS011;12385;51.412;5.540;2023-05-15T07:48:34;67.90;;;45.67;;
24261;SDS011;12385;51.412;5.540;2023-05-15T07:50:59;67.00;;;45.25;;
24261;SDS011;12385;51.412;5.540;2023-05-15T07:53:25;67.63;;;44.72;;
24261;SDS011;12385;51.412;5.540;2023-05-15T07:55:50;62.13;;;42.60;;
24261;SDS011;12385;51.412;5.540;2023-05-15T07:58:16;68.60;;;45.83;;
24261;SDS011;12385;51.412;5.540;2023-05-15T08:00:41;68.95;;;46.55;;
24261;SDS011;12385;51.412;5.540;2023-05-15T08:03:19;66.97;;;45.17;;
24261;SDS011;12385;51.412;5.540;2023-05-15T08:05:45;67.20;;;45.15;;
24261;SDS011;12385;51.412;5.540;2023-05-15T08:08:11;62.30;;;43.67;;
24261;SDS011;12385;51.412;5.540;2023-05-15T08:10:36;56.70;;;41.80;;
24261;SDS011;12385;51.412;5.540;2023-05-15T08:13:02;57.88;;;39.50;;
24261;SDS011;12385;51.412;5.540;2023-05-15T08:15:27;52.22;;;36.95;;
24261;SDS011;12385;51.412;5.540;2023-05-15T08:17:54;52.22;;;35.45;;
24261;SDS011;12385;51.412;5.540;2023-05-15T08:20:19;50.75;;;37.40;;
24261;SDS011;12385;51.412;5.540;2023-05-15T08:22:45;50.50;;;37.47;;
24261;SDS011;12385;51.412;5.540;2023-05-15T08:25:10;51.85;;;36.97;;
24261;SDS011;12385;51.412;5.540;2023-05-15T08:27:36;52.50;;;37.75;;
24261;SDS011;12385;51.412;5.540;2023-05-15T08:30:02;46.20;;;35.88;;
24261;SDS011;12385;51.412;5.540;2023-05-15T08:32:29;45.83;;;33.65;;
24261;SDS011;12385;51.412;5.540;2023-05-15T08:34:54;45.92;;;33.63;;
24261;SDS011;12385;51.412;5.540;2023-05-15T08:37:20;48.47;;;33.75;;
24261;SDS011;12385;51.412;5.540;2023-05-15T08:39:45;46.60;;;33.28;;
24261;SDS011;12385;51.412;5.540;2023-05-15T08:42:24;50.05;;;36.08;;
24261;SDS011;12385;51.412;5.540;2023-05-15T08:44:59;48.67;;;35.92;;
24261;SDS011;12385;51.412;5.540;2023-05-15T08:47:26;50.00;;;34.78;;
24261;SDS011;12385;51.412;5.540;2023-05-15T08:49:57;49.08;;;32.85;;
24261;SDS011;12385;51.412;5.540;2023-05-15T08:52:29;46.05;;;32.88;;
24261;SDS011;12385;51.412;5.540;2023-05-15T08:54:59;40.90;;;31.05;;
24261;SDS011;12385;51.412;5.540;2023-05-15T08:57:26;42.47;;;30.63;;
24261;SDS011;12385;51.412;5.540;2023-05-15T08:59:52;39.38;;;29.42;;
24261;SDS011;12385;51.412;5.540;2023-05-15T09:02:19;40.95;;;30.13;;
24261;SDS011;12385;51.412;5.540;2023-05-15T09:04:45;39.38;;;29.30;;
24261;SDS011;12385;51.412;5.540;2023-05-15T09:07:11;41.63;;;27.75;;
24261;SDS011;12385;51.412;5.540;2023-05-15T09:09:39;39.65;;;28.00;;
24261;SDS011;12385;51.412;5.540;2023-05-15T09:12:06;41.67;;;30.58;;
24261;SDS011;12385;51.412;5.540;2023-05-15T09:14:35;38.83;;;28.92;;
24261;SDS011;12385;51.412;5.540;2023-05-15T09:17:01;38.28;;;27.90;;
24261;SDS011;12385;51.412;5.540;2023-05-15T09:19:26;37.70;;;27.77;;
24261;SDS011;12385;51.412;5.540;2023-05-15T09:21:52;35.55;;;27.88;;
24261;SDS011;12385;51.412;5.540;2023-05-15T09:24:18;35.03;;;27.33;;
24261;SDS011;12385;51.412;5.540;2023-05-15T09:29:30;33.45;;;22.88;;
24261;SDS011;12385;51.412;5.540;2023-05-15T09:32:00;34.88;;;25.92;;
24261;SDS011;12385;51.412;5.540;2023-05-15T09:34:28;37.70;;;28.05;;
24261;SDS011;12385;51.412;5.540;2023-05-15T09:36:59;35.45;;;27.08;;
24261;SDS011;12385;51.412;5.540;2023-05-15T09:39:27;34.07;;;26.33;;
24261;SDS011;12385;51.412;5.540;2023-05-15T09:42:12;35.33;;;25.15;;
24261;SDS011;12385;51.412;5.540;2023-05-15T09:44:42;35.35;;;24.70;;
24261;SDS011;12385;51.412;5.540;2023-05-15T09:47:08;39.22;;;25.75;;
24261;SDS011;12385;51.412;5.540;2023-05-15T09:49:37;35.33;;;24.98;;
24261;SDS011;12385;51.412;5.540;2023-05-15T09:52:02;33.00;;;23.95;;
24261;SDS011;12385;51.412;5.540;2023-05-15T09:54:33;31.08;;;23.20;;
24261;SDS011;12385;51.412;5.540;2023-05-15T09:57:06;30.33;;;23.85;;
24261;SDS011;12385;51.412;5.540;2023-05-15T09:59:33;34.50;;;24.77;;
24261;SDS011;12385;51.412;5.540;2023-05-15T10:01:59;34.35;;;25.60;;
24261;SDS011;12385;51.412;5.540;2023-05-15T10:04:25;30.23;;;24.27;;
24261;SDS011;12385;51.412;5.540;2023-05-15T10:06:50;31.05;;;24.00;;
24261;SDS011;12385;51.412;5.540;2023-05-15T10:09:18;33.72;;;25.35;;
24261;SDS011;12385;51.412;5.540;2023-05-15T10:11:49;37.22;;;26.17;;
24261;SDS011;12385;51.412;5.540;2023-05-15T10:14:19;36.38;;;26.55;;
24261;SDS011;12385;51.412;5.540;2023-05-15T10:16:47;35.13;;;26.90;;
24261;SDS011;12385;51.412;5.540;2023-05-15T10:19:13;38.03;;;26.70;;
24261;SDS011;12385;51.412;5.540;2023-05-15T10:21:40;34.28;;;27.05;;
24261;SDS011;12385;51.412;5.540;2023-05-15T10:24:06;39.25;;;27.00;;
24261;SDS011;12385;51.412;5.540;2023-05-15T10:26:36;38.20;;;27.98;;
24261;SDS011;12385;51.412;5.540;2023-05-15T10:29:09;35.60;;;27.70;;
24261;SDS011;12385;51.412;5.540;2023-05-15T10:31:37;37.53;;;28.08;;
24261;SDS011;12385;51.412;5.540;2023-05-15T10:34:04;39.35;;;28.80;;
24261;SDS011;12385;51.412;5.540;2023-05-15T10:36:31;38.40;;;29.35;;
24261;SDS011;12385;51.412;5.540;2023-05-15T10:38:58;41.33;;;30.60;;
24261;SDS011;12385;51.412;5.540;2023-05-15T10:41:27;40.45;;;31.02;;
24261;SDS011;12385;51.412;5.540;2023-05-15T10:43:54;39.10;;;30.27;;
24261;SDS011;12385;51.412;5.540;2023-05-15T10:48:50;38.03;;;28.70;;
24261;SDS011;12385;51.412;5.540;2023-05-15T10:51:16;38.85;;;28.85;;
24261;SDS011;12385;51.412;5.540;2023-05-15T10:53:47;39.10;;;27.60;;
24261;SDS011;12385;51.412;5.540;2023-05-15T10:56:14;37.13;;;27.33;;
24261;SDS011;12385;51.412;5.540;2023-05-15T10:58:44;36.65;;;28.02;;
24261;SDS011;12385;51.412;5.540;2023-05-15T11:01:27;41.03;;;28.83;;
24261;SDS011;12385;51.412;5.540;2023-05-15T11:04:14;38.85;;;27.95;;
24261;SDS011;12385;51.412;5.540;2023-05-15T11:06:43;35.75;;;28.10;;
24261;SDS011;12385;51.412;5.540;2023-05-15T11:11:58;35.13;;;27.65;;
24261;SDS011;12385;51.412;5.540;2023-05-15T11:14:26;36.88;;;27.13;;
24261;SDS011;12385;51.412;5.540;2023-05-15T11:21:55;32.22;;;25.33;;
24261;SDS011;12385;51.412;5.540;2023-05-15T11:24:30;32.55;;;24.10;;
24261;SDS011;12385;51.412;5.540;2023-05-15T11:27:03;30.10;;;23.20;;
24261;SDS011;12385;51.412;5.540;2023-05-15T11:29:29;31.57;;;23.47;;
24261;SDS011;12385;51.412;5.540;2023-05-15T11:31:59;32.22;;;23.55;;
24261;SDS011;12385;51.412;5.540;2023-05-15T11:34:28;29.83;;;23.92;;
24261;SDS011;12385;51.412;5.540;2023-05-15T11:37:07;29.23;;;23.98;;
24261;SDS011;12385;51.412;5.540;2023-05-15T11:39:40;31.63;;;22.63;;
24261;SDS011;12385;51.412;5.540;2023-05-15T11:42:11;30.17;;;22.60;;
24261;SDS011;12385;51.412;5.540;2023-05-15T11:44:37;27.98;;;22.67;;
24261;SDS011;12385;51.412;5.540;2023-05-15T11:47:07;33.15;;;24.70;;
24261;SDS011;12385;51.412;5.540;2023-05-15T11:49:34;30.98;;;23.65;;
24261;SDS011;12385;51.412;5.540;2023-05-15T11:52:01;34.55;;;24.67;;
24261;SDS011;12385;51.412;5.540;2023-05-15T11:54:27;29.70;;;23.60;;
24261;SDS011;12385;51.412;5.540;2023-05-15T11:56:55;31.88;;;22.75;;
24261;SDS011;12385;51.412;5.540;2023-05-15T11:59:21;32.40;;;24.27;;
24261;SDS011;12385;51.412;5.540;2023-05-15T12:01:51;34.97;;;25.90;;
24261;SDS011;12385;51.412;5.540;2023-05-15T12:04:17;35.92;;;26.00;;
24261;SDS011;12385;51.412;5.540;2023-05-15T12:06:43;35.28;;;27.42;;
24261;SDS011;12385;51.412;5.540;2023-05-15T12:09:15;35.10;;;26.90;;
24261;SDS011;12385;51.412;5.540;2023-05-15T12:11:47;35.17;;;27.50;;
24261;SDS011;12385;51.412;5.540;2023-05-15T12:14:16;35.28;;;28.00;;
24261;SDS011;12385;51.412;5.540;2023-05-15T12:16:41;38.60;;;29.23;;
24261;SDS011;12385;51.412;5.540;2023-05-15T12:19:07;38.78;;;28.90;;
24261;SDS011;12385;51.412;5.540;2023-05-15T12:21:34;39.72;;;30.38;;
24261;SDS011;12385;51.412;5.540;2023-05-15T12:23:59;40.33;;;31.48;;
24261;SDS011;12385;51.412;5.540;2023-05-15T12:26:25;40.80;;;32.17;;
24261;SDS011;12385;51.412;5.540;2023-05-15T12:28:52;41.90;;;32.03;;
24261;SDS011;12385;51.412;5.540;2023-05-15T12:31:19;45.97;;;32.00;;
24261;SDS011;12385;51.412;5.540;2023-05-15T12:33:45;41.95;;;31.52;;
24261;SDS011;12385;51.412;5.540;2023-05-15T12:36:11;46.28;;;34.08;;
24261;SDS011;12385;51.412;5.540;2023-05-15T12:38:37;50.83;;;37.40;;
24261;SDS011;12385;51.412;5.540;2023-05-15T12:41:04;55.00;;;39.00;;
24261;SDS011;12385;51.412;5.540;2023-05-15T12:43:30;58.03;;;42.72;;
24261;SDS011;12385;51.412;5.540;2023-05-15T12:45:56;55.83;;;43.30;;
24261;SDS011;12385;51.412;5.540;2023-05-15T12:48:22;60.83;;;44.13;;
24261;SDS011;12385;51.412;5.540;2023-05-15T12:50:52;61.42;;;44.42;;
24261;SDS011;12385;51.412;5.540;2023-05-15T12:53:21;58.10;;;42.13;;
24261;SDS011;12385;51.412;5.540;2023-05-15T12:55:46;57.88;;;41.33;;
24261;SDS011;12385;51.412;5.540;2023-05-15T12:58:13;57.20;;;41.05;;
24261;SDS011;12385;51.412;5.540;2023-05-15T13:00:43;60.10;;;40.90;;
24261;SDS011;12385;51.412;5.540;2023-05-15T13:03:10;54.60;;;40.20;;
24261;SDS011;12385;51.412;5.540;2023-05-15T13:05:37;58.67;;;40.30;;
24261;SDS011;12385;51.412;5.540;2023-05-15T13:08:06;55.60;;;40.70;;
24261;SDS011;12385;51.412;5.540;2023-05-15T13:10:33;54.10;;;40.53;;
24261;SDS011;12385;51.412;5.540;2023-05-15T13:13:00;62.35;;;40.88;;
24261;SDS011;12385;51.412;5.540;2023-05-15T13:15:30;52.45;;;38.00;;
24261;SDS011;12385;51.412;5.540;2023-05-15T13:17:59;51.13;;;38.42;;
24261;SDS011;12385;51.412;5.540;2023-05-15T13:20:29;55.88;;;37.95;;
24261;SDS011;12385;51.412;5.540;2023-05-15T13:22:58;57.50;;;38.40;;
24261;SDS011;12385;51.412;5.540;2023-05-15T13:25:24;58.65;;;39.83;;
24261;SDS011;12385;51.412;5.540;2023-05-15T13:27:50;56.70;;;39.55;;
24261;SDS011;12385;51.412;5.540;2023-05-15T13:30:16;51.28;;;37.15;;
24261;SDS011;12385;51.412;5.540;2023-05-15T13:32:42;52.17;;;36.72;;
24261;SDS011;12385;51.412;5.540;2023-05-15T13:35:08;52.38;;;35.85;;
24261;SDS011;12385;51.412;5.540;2023-05-15T13:37:34;50.42;;;35.33;;
24261;SDS011;12385;51.412;5.540;2023-05-15T13:40:01;47.13;;;35.10;;
24261;SDS011;12385;51.412;5.540;2023-05-15T13:44:56;47.83;;;33.75;;
24261;SDS011;12385;51.412;5.540;2023-05-15T13:47:21;46.28;;;34.42;;
24261;SDS011;12385;51.412;5.540;2023-05-15T13:49:47;44.40;;;35.25;;
24261;SDS011;12385;51.412;5.540;2023-05-15T13:52:13;48.58;;;34.88;;
24261;SDS011;12385;51.412;5.540;2023-05-15T13:54:39;48.55;;;34.35;;
24261;SDS011;12385;51.412;5.540;2023-05-15T13:57:04;49.25;;;34.80;;
24261;SDS011;12385;51.412;5.540;2023-05-15T13:59:30;46.53;;;33.83;;
24261;SDS011;12385;51.412;5.540;2023-05-15T14:01:56;47.80;;;34.33;;
24261;SDS011;12385;51.412;5.540;2023-05-15T14:04:21;45.65;;;32.55;;
24261;SDS011;12385;51.412;5.540;2023-05-15T14:06:47;44.03;;;29.30;;
24261;SDS011;12385;51.412;5.540;2023-05-15T14:09:12;44.15;;;30.95;;
24261;SDS011;12385;51.412;5.540;2023-05-15T14:11:39;46.17;;;32.50;;
24261;SDS011;12385;51.412;5.540;2023-05-15T14:14:05;45.05;;;31.88;;
24261;SDS011;12385;51.412;5.540;2023-05-15T14:16:30;45.58;;;31.08;;
24261;SDS011;12385;51.412;5.540;2023-05-15T14:18:56;45.17;;;29.95;;
24261;SDS011;12385;51.412;5.540;2023-05-15T14:21:22;42.20;;;28.50;;
24261;SDS011;12385;51.412;5.540;2023-05-15T14:23:47;46.25;;;30.38;;
24261;SDS011;12385;51.412;5.540;2023-05-15T14:26:13;47.83;;;30.88;;
24261;SDS011;12385;51.412;5.540;2023-05-15T14:28:39;46.40;;;29.45;;
24261;SDS011;12385;51.412;5.540;2023-05-15T14:31:05;45.35;;;30.08;;
24261;SDS011;12385;51.412;5.540;2023-05-15T14:33:30;40.22;;;28.73;;
24261;SDS011;12385;51.412;5.540;2023-05-15T14:35:56;42.95;;;28.13;;
24261;SDS011;12385;51.412;5.540;2023-05-15T14:38:21;39.63;;;25.58;;
24261;SDS011;12385;51.412;5.540;2023-05-15T14:40:47;38.80;;;25.70;;
24261;SDS011;12385;51.412;5.540;2023-05-15T14:43:13;33.22;;;22.88;;
24261;SDS011;12385;51.412;5.540;2023-05-15T14:45:38;33.17;;;20.45;;
24261;SDS011;12385;51.412;5.540;2023-05-15T14:48:04;27.27;;;19.95;;
24261;SDS011;12385;51.412;5.540;2023-05-15T14:50:29;24.73;;;17.67;;
24261;SDS011;12385;51.412;5.540;2023-05-15T14:52:55;20.60;;;15.95;;
24261;SDS011;12385;51.412;5.540;2023-05-15T14:55:21;20.35;;;14.15;;
24261;SDS011;12385;51.412;5.540;2023-05-15T14:57:47;18.92;;;13.25;;